createdAt,value
2022-08-09T00:00:04.291Z,10.53
2022-08-09T00:01:43.083Z,9.47
2022-08-09T00:03:56.927Z,12.47
2022-08-09T00:05:03.280Z,11.60
2022-08-09T00:06:37.222Z,11.90
2022-08-09T00:08:01.370Z,12.30
2022-08-09T00:09:23.804Z,9.30
2022-08-09T00:10:47.114Z,11.50
2022-08-09T00:12:22.339Z,10.47
2022-08-09T00:13:45.788Z,14.97
2022-08-09T00:15:09.666Z,14.53
2022-08-09T00:16:38.501Z,17.27
2022-08-09T00:18:10.703Z,19.00
2022-08-09T00:19:34.723Z,20.90
2022-08-09T00:20:57.017Z,21.53
2022-08-09T00:22:19.960Z,11.60
2022-08-09T00:23:55.161Z,13.80
2022-08-09T00:25:23.544Z,11.97
2022-08-09T00:26:56.093Z,12.80
2022-08-09T00:28:19.666Z,13.90
2022-08-09T00:30:23.438Z,12.13
2022-08-09T00:31:57.109Z,14.67
2022-08-09T00:33:09.002Z,12.50
2022-08-09T00:34:33.474Z,9.80
2022-08-09T00:35:56.042Z,10.13
2022-08-09T00:37:20.287Z,13.43
2022-08-09T00:38:42.431Z,13.17
2022-08-09T00:40:14.161Z,9.50
2022-08-09T00:44:10.123Z,10.53
2022-08-09T00:44:13.636Z,13.77
2022-08-09T00:45:15.745Z,9.50
2022-08-09T00:46:55.654Z,10.03
2022-08-09T00:48:20.222Z,10.70
2022-08-09T00:49:42.575Z,14.07
2022-08-09T00:51:16.642Z,12.33
2022-08-09T00:52:39.777Z,15.00
2022-08-09T00:54:03.699Z,11.10
2022-08-09T00:56:04.206Z,14.43
2022-08-09T00:57:08.804Z,11.73
2022-08-09T00:58:35.730Z,13.50
2022-08-09T00:59:59.349Z,19.90
2022-08-09T01:01:32.493Z,14.77
2022-08-09T01:03:32.658Z,12.40
2022-08-09T01:05:14.210Z,12.07
2022-08-09T01:06:53.863Z,11.47
2022-08-09T01:08:31.711Z,13.40
2022-08-09T01:10:05.718Z,13.63
2022-08-09T01:11:34.589Z,14.57
2022-08-09T01:13:08.826Z,16.90
2022-08-09T01:14:52.908Z,19.53
2022-08-09T01:16:17.255Z,13.70
2022-08-09T01:17:45.451Z,12.23
2022-08-09T01:19:17.082Z,16.20
2022-08-09T01:21:11.067Z,11.47
2022-08-09T01:22:38.758Z,14.00
2022-08-09T01:24:05.502Z,13.20
2022-08-09T01:25:41.644Z,12.00
2022-08-09T01:27:15.890Z,13.13
2022-08-09T01:28:44.258Z,18.90
2022-08-09T01:30:33.619Z,12.40
2022-08-09T01:32:32.141Z,11.50
2022-08-09T01:33:38.406Z,14.07
2022-08-09T01:35:18.261Z,12.93
2022-08-09T01:36:48.078Z,18.73
2022-08-09T01:38:15.857Z,14.13
2022-08-09T01:39:41.120Z,12.33
2022-08-09T01:41:14.249Z,11.97
2022-08-09T01:42:38.351Z,10.93
2022-08-09T01:44:04.947Z,16.63
2022-08-09T01:45:28.400Z,13.43
2022-08-09T01:46:53.099Z,9.83
2022-08-09T01:48:17.267Z,16.43
2022-08-09T01:49:41.914Z,11.00
2022-08-09T01:51:22.919Z,12.27
2022-08-09T01:52:47.420Z,17.10
2022-08-09T01:54:16.148Z,10.97
2022-08-09T01:56:16.137Z,15.20
2022-08-09T01:57:45.849Z,22.90
2022-08-09T01:59:11.143Z,13.70
2022-08-09T02:00:39.646Z,15.00
2022-08-09T02:02:03.467Z,16.67
2022-08-09T02:03:29.771Z,18.57
2022-08-09T02:04:54.388Z,19.50
2022-08-09T02:06:39.952Z,20.37
2022-08-09T02:08:41.210Z,14.77
2022-08-09T02:10:07.010Z,18.97
2022-08-09T02:11:41.969Z,16.10
2022-08-09T02:13:08.169Z,23.03
2022-08-09T02:14:32.354Z,18.93
2022-08-09T02:15:56.877Z,17.80
2022-08-09T02:17:59.487Z,16.63
2022-08-09T02:19:07.297Z,19.33
2022-08-09T02:20:32.954Z,19.57
2022-08-09T02:22:00.803Z,23.43
2022-08-09T02:23:39.942Z,18.70
2022-08-09T02:25:11.150Z,19.90
2022-08-09T02:26:39.267Z,17.13
2022-08-09T02:28:13.271Z,15.20
2022-08-09T02:29:48.545Z,21.60
2022-08-09T02:31:21.158Z,18.00
2022-08-09T02:32:48.360Z,22.00
2022-08-09T02:34:25.774Z,18.00
2022-08-09T02:36:04.360Z,18.23
2022-08-09T02:37:31.891Z,17.60
2022-08-09T02:38:58.364Z,18.70
2022-08-09T02:40:27.119Z,18.33
2022-08-09T02:41:59.768Z,14.40
2022-08-09T02:43:28.711Z,13.87
2022-08-09T02:44:56.814Z,22.23
2022-08-09T02:46:19.229Z,19.33
2022-08-09T02:47:58.036Z,17.17
2022-08-09T02:49:27.156Z,19.43
2022-08-09T02:51:02.676Z,15.93
2022-08-09T02:52:35.245Z,16.30
2022-08-09T02:54:00.972Z,15.43
2022-08-09T02:55:46.538Z,14.63
2022-08-09T02:57:13.876Z,18.80
2022-08-09T02:58:46.383Z,17.10
2022-08-09T03:00:25.679Z,16.97
2022-08-09T03:02:05.950Z,19.03
2022-08-09T03:04:12.947Z,18.40
2022-08-09T03:05:16.560Z,20.90
2022-08-09T03:06:41.895Z,24.07
2022-08-09T03:08:08.956Z,19.47
2022-08-09T03:09:33.743Z,18.23
2022-08-09T03:10:57.101Z,22.20
2022-08-09T03:12:24.315Z,16.90
2022-08-09T03:13:59.428Z,18.03
2022-08-09T03:15:25.490Z,23.70
2022-08-09T03:17:08.537Z,17.10
2022-08-09T03:18:39.221Z,20.43
2022-08-09T03:20:11.149Z,19.00
2022-08-09T03:21:36.360Z,21.53
2022-08-09T03:23:10.527Z,27.90
2022-08-09T03:24:51.860Z,21.77
2022-08-09T03:26:17.511Z,22.43
2022-08-09T03:27:45.385Z,21.63
2022-08-09T03:29:13.422Z,18.80
2022-08-09T03:30:46.084Z,24.03
2022-08-09T03:32:11.717Z,21.33
2022-08-09T03:33:53.389Z,23.57
2022-08-09T03:35:44.429Z,22.83
2022-08-09T03:37:02.468Z,22.20
2022-08-09T03:38:33.077Z,17.20
2022-08-09T03:39:55.602Z,15.60
2022-08-09T03:41:18.867Z,19.57
2022-08-09T03:42:42.866Z,17.23
2022-08-09T03:44:08.801Z,23.47
2022-08-09T03:46:04.623Z,22.63
2022-08-09T03:47:13.410Z,15.70
2022-08-09T03:48:37.616Z,19.00
2022-08-09T03:50:27.748Z,13.67
2022-08-09T03:52:00.145Z,16.90
2022-08-09T03:53:32.392Z,24.43
2022-08-09T03:55:02.379Z,18.00
2022-08-09T03:56:31.196Z,18.53
2022-08-09T03:58:06.525Z,20.17
2022-08-09T03:59:53.441Z,19.70
2022-08-09T04:01:18.009Z,20.20
2022-08-09T04:02:44.916Z,19.97
2022-08-09T04:04:10.129Z,19.10
2022-08-09T04:05:40.480Z,22.80
2022-08-09T04:07:03.819Z,24.43
2022-08-09T04:08:29.050Z,20.57
2022-08-09T04:09:53.644Z,20.87
2022-08-09T04:11:16.059Z,24.70
2022-08-09T04:12:47.556Z,17.40
2022-08-09T04:14:52.986Z,17.27
2022-08-09T04:16:19.986Z,15.87
2022-08-09T04:17:37.905Z,14.60
2022-08-09T04:19:01.589Z,20.13
2022-08-09T04:20:24.144Z,15.70
2022-08-09T04:21:48.362Z,12.70
2022-08-09T04:23:17.315Z,12.30
2022-08-09T04:24:40.047Z,15.03
2022-08-09T04:26:03.814Z,15.13
2022-08-09T04:27:26.106Z,13.80
2022-08-09T04:28:52.430Z,11.50
2022-08-09T04:30:20.971Z,10.00
2022-08-09T04:31:47.448Z,10.57
2022-08-09T04:33:09.809Z,13.00
2022-08-09T04:34:34.351Z,15.63
2022-08-09T04:35:56.429Z,11.40
2022-08-09T04:37:18.464Z,15.53
2022-08-09T04:38:41.156Z,13.80
2022-08-09T04:40:05.983Z,13.37
2022-08-09T04:41:32.912Z,16.77
2022-08-09T04:42:56.915Z,20.37
2022-08-09T04:44:19.247Z,17.93
2022-08-09T04:45:53.935Z,19.60
2022-08-09T04:47:16.544Z,12.63
2022-08-09T04:48:38.623Z,17.70
2022-08-09T04:50:12.583Z,12.13
2022-08-09T04:51:36.205Z,12.80
2022-08-09T04:52:59.117Z,10.67
2022-08-09T04:54:22.175Z,14.03
2022-08-09T04:55:57.931Z,8.90
2022-08-09T04:57:21.395Z,10.30
2022-08-09T04:58:46.070Z,10.47
2022-08-09T05:00:13.551Z,8.47
2022-08-09T05:01:38.897Z,9.77
2022-08-09T05:03:30.778Z,9.17
2022-08-09T05:04:48.016Z,11.30
2022-08-09T05:06:18.251Z,13.47
2022-08-09T05:07:53.299Z,10.37
2022-08-09T05:09:15.893Z,8.20
2022-08-09T05:10:38.149Z,13.30
2022-08-09T05:12:03.639Z,12.50
2022-08-09T05:13:25.986Z,10.73
2022-08-09T05:14:49.079Z,12.27
2022-08-09T05:16:12.559Z,10.80
2022-08-09T05:18:39.732Z,9.53
2022-08-09T05:19:24.391Z,11.80
2022-08-09T05:20:49.068Z,11.60
2022-08-09T05:22:35.047Z,13.23
2022-08-09T05:24:01.003Z,16.70
2022-08-09T05:25:24.907Z,9.50
2022-08-09T05:26:51.048Z,7.83
2022-08-09T05:28:13.634Z,9.33
2022-08-09T05:29:35.784Z,10.13
2022-08-09T05:30:59.752Z,9.83
2022-08-09T05:32:32.060Z,7.63
2022-08-09T05:33:55.198Z,10.77
2022-08-09T05:35:17.544Z,8.87
2022-08-09T05:36:40.099Z,10.03
2022-08-09T05:38:05.013Z,10.23
2022-08-09T05:39:28.835Z,10.80
2022-08-09T05:40:51.960Z,9.83
2022-08-09T05:42:21.009Z,10.60
2022-08-09T05:43:45.186Z,8.50
2022-08-09T05:45:14.488Z,8.90
2022-08-09T05:46:37.050Z,10.33
2022-08-09T05:48:01.606Z,5.80
2022-08-09T05:50:23.310Z,12.77
2022-08-09T05:51:30.054Z,10.93
2022-08-09T05:52:53.548Z,8.80
2022-08-09T05:54:17.974Z,12.13
2022-08-09T05:55:40.084Z,11.73
2022-08-09T05:57:02.183Z,3.80
2022-08-09T05:58:28.425Z,9.23
2022-08-09T05:59:50.460Z,5.13
2022-08-09T06:01:16.015Z,4.93
2022-08-09T06:02:42.281Z,7.97
2022-08-09T06:04:08.701Z,6.17
2022-08-09T06:05:49.894Z,4.50
2022-08-09T06:07:21.655Z,5.13
2022-08-09T06:08:44.192Z,5.93
2022-08-09T06:10:18.008Z,9.93
2022-08-09T06:11:40.847Z,5.90
2022-08-09T06:13:18.824Z,7.83
2022-08-09T06:14:42.549Z,5.10
2022-08-09T06:16:05.751Z,9.17
2022-08-09T06:17:40.061Z,8.80
2022-08-09T06:19:03.769Z,9.70
2022-08-09T06:20:28.775Z,4.00
2022-08-09T06:21:58.934Z,4.90
2022-08-09T06:23:21.264Z,7.70
2022-08-09T06:24:44.344Z,11.83
2022-08-09T06:26:06.533Z,6.23
2022-08-09T06:27:42.667Z,6.70
2022-08-09T06:29:05.669Z,7.27
2022-08-09T06:30:27.849Z,4.57
2022-08-09T06:32:08.396Z,6.40
2022-08-09T06:33:41.447Z,6.03
2022-08-09T06:35:06.304Z,5.53
2022-08-09T06:36:29.881Z,9.87
2022-08-09T06:38:05.416Z,6.87
2022-08-09T06:39:39.662Z,6.43
2022-08-09T06:41:19.237Z,6.00
2022-08-09T06:42:45.152Z,8.00
2022-08-09T06:44:09.754Z,4.20
2022-08-09T06:46:06.862Z,7.13
2022-08-09T06:47:14.165Z,7.50
2022-08-09T06:48:37.162Z,4.17
2022-08-09T06:50:14.574Z,6.63
2022-08-09T06:51:41.335Z,8.20
2022-08-09T06:53:04.861Z,5.07
2022-08-09T06:54:26.992Z,4.57
2022-08-09T06:55:50.403Z,4.40
2022-08-09T06:57:12.616Z,8.17
2022-08-09T07:00:47.384Z,4.23
2022-08-09T07:00:56.196Z,5.83
2022-08-09T07:02:04.548Z,4.40
2022-08-09T07:03:28.940Z,6.17
2022-08-09T07:04:51.197Z,3.90
2022-08-09T07:06:13.423Z,6.37
2022-08-09T07:08:00.480Z,5.03
2022-08-09T07:09:56.122Z,7.53
2022-08-09T07:11:03.467Z,5.30
2022-08-09T07:12:38.523Z,5.00
2022-08-09T07:14:05.900Z,7.23
2022-08-09T07:16:35.234Z,5.30
2022-08-09T07:17:10.463Z,2.60
2022-08-09T07:18:34.367Z,5.10
2022-08-09T07:20:00.846Z,8.60
2022-08-09T07:21:22.903Z,5.40
2022-08-09T07:22:52.432Z,8.10
2022-08-09T07:24:15.727Z,3.87
2022-08-09T07:25:38.904Z,4.30
2022-08-09T07:27:21.051Z,3.90
2022-08-09T07:29:07.895Z,3.23
2022-08-09T07:30:32.823Z,6.60
2022-08-09T07:31:55.639Z,3.87
2022-08-09T07:33:19.799Z,4.53
2022-08-09T07:34:42.280Z,3.13
2022-08-09T07:36:05.070Z,4.60
2022-08-09T07:37:27.155Z,3.70
2022-08-09T07:38:58.212Z,5.60
2022-08-09T07:40:26.772Z,7.13
2022-08-09T07:41:50.199Z,6.63
2022-08-09T07:43:16.859Z,5.40
2022-08-09T07:44:51.153Z,5.10
2022-08-09T07:46:17.289Z,5.73
2022-08-09T07:48:00.815Z,4.87
2022-08-09T07:49:23.799Z,5.17
2022-08-09T07:50:52.957Z,5.60
2022-08-09T07:52:25.508Z,6.00
2022-08-09T07:54:05.091Z,8.23
2022-08-09T07:55:29.055Z,4.80
2022-08-09T07:57:04.411Z,3.90
2022-08-09T07:58:34.045Z,2.93
2022-08-09T08:00:03.407Z,2.90
2022-08-09T08:01:34.118Z,4.00
2022-08-09T08:02:57.405Z,4.53
2022-08-09T08:04:20.168Z,7.30
2022-08-09T08:05:58.318Z,8.23
2022-08-09T08:08:06.129Z,4.97
2022-08-09T08:09:05.042Z,5.60
2022-08-09T08:10:34.593Z,7.10
2022-08-09T08:12:11.352Z,3.00
2022-08-09T08:13:56.345Z,4.03
2022-08-09T08:15:23.014Z,11.30
2022-08-09T08:16:51.104Z,9.27
2022-08-09T08:18:23.374Z,4.47
2022-08-09T08:19:47.654Z,4.30
2022-08-09T08:21:14.010Z,2.77
2022-08-09T08:22:37.714Z,3.63
2022-08-09T08:24:01.247Z,5.57
2022-08-09T08:25:43.769Z,4.37
2022-08-09T08:27:16.869Z,2.77
2022-08-09T08:28:40.671Z,4.13
2022-08-09T08:30:03.764Z,7.20
2022-08-09T08:32:02.387Z,2.47
2022-08-09T08:33:11.977Z,3.87
2022-08-09T08:34:40.420Z,2.67
2022-08-09T08:36:04.151Z,4.83
2022-08-09T08:37:40.738Z,3.03
2022-08-09T08:39:04.113Z,2.73
2022-08-09T08:40:26.271Z,2.37
2022-08-09T08:41:52.545Z,2.43
2022-08-09T08:43:14.939Z,3.63
2022-08-09T08:44:37.679Z,4.73
2022-08-09T08:46:31.990Z,4.90
2022-08-09T08:47:49.894Z,4.27
2022-08-09T08:49:26.787Z,3.00
2022-08-09T08:51:02.580Z,2.60
2022-08-09T08:52:57.457Z,6.73
2022-08-09T08:54:10.188Z,2.90
2022-08-09T08:55:43.756Z,3.00
2022-08-09T08:57:11.455Z,2.90
2022-08-09T08:58:35.921Z,2.60
2022-08-09T08:59:59.141Z,2.60
2022-08-09T09:01:24.900Z,3.03
2022-08-09T09:03:08.733Z,8.00
2022-08-09T09:04:47.777Z,5.10
2022-08-09T09:06:17.385Z,4.53
2022-08-09T09:07:44.793Z,8.97
2022-08-09T09:09:21.071Z,2.63
2022-08-09T09:10:50.943Z,4.93
2022-08-09T09:12:16.618Z,3.00
2022-08-09T09:13:55.531Z,6.37
2022-08-09T09:15:28.580Z,3.93
2022-08-09T09:16:51.228Z,5.50
2022-08-09T09:18:17.438Z,6.13
2022-08-09T09:19:41.976Z,4.50
2022-08-09T09:21:07.317Z,3.87
2022-08-09T09:23:01.723Z,3.90
2022-08-09T09:24:31.614Z,4.70
2022-08-09T09:26:04.562Z,2.30
2022-08-09T09:28:05.842Z,2.57
2022-08-09T09:29:46.050Z,4.60
2022-08-09T09:32:01.868Z,5.80
2022-08-09T09:33:16.496Z,5.23
2022-08-09T09:34:39.559Z,4.40
2022-08-09T09:36:20.520Z,4.17
2022-08-09T09:37:46.040Z,3.73
2022-08-09T09:39:11.680Z,4.63
2022-08-09T09:40:46.334Z,5.93
2022-08-09T09:42:21.471Z,4.20
2022-08-09T09:44:11.023Z,3.97
2022-08-09T09:45:29.309Z,6.37
2022-08-09T09:46:57.171Z,6.87
2022-08-09T09:48:21.509Z,3.53
2022-08-09T09:50:07.516Z,6.90
2022-08-09T09:51:40.144Z,2.57
2022-08-09T09:53:03.664Z,5.67
2022-08-09T09:54:40.081Z,6.90
2022-08-09T09:56:30.933Z,3.30
2022-08-09T09:58:16.557Z,9.10
2022-08-09T09:59:47.455Z,4.10
2022-08-09T10:01:36.796Z,3.50
2022-08-09T10:02:59.933Z,4.20
2022-08-09T10:04:30.443Z,4.87
2022-08-09T10:06:04.753Z,3.67
2022-08-09T10:07:28.207Z,6.97
2022-08-09T10:08:59.725Z,4.07
2022-08-09T10:10:31.616Z,7.00
2022-08-09T10:12:07.595Z,7.90
2022-08-09T10:13:43.303Z,2.37
2022-08-09T10:15:50.966Z,5.47
2022-08-09T10:17:40.123Z,3.93
2022-08-09T10:18:54.493Z,3.97
2022-08-09T10:20:26.939Z,5.73
2022-08-09T10:21:54.757Z,5.33
2022-08-09T10:23:23.642Z,9.87
2022-08-09T10:24:46.193Z,6.47
2022-08-09T10:26:13.480Z,4.20
2022-08-09T10:27:57.686Z,7.10
2022-08-09T10:29:36.075Z,3.43
2022-08-09T10:32:45.684Z,5.43
2022-08-09T10:34:32.764Z,4.10
2022-08-09T10:35:55.016Z,3.47
2022-08-09T10:37:19.141Z,6.57
2022-08-09T10:38:57.176Z,2.67
2022-08-09T10:40:32.517Z,3.77
2022-08-09T10:41:57.463Z,11.43
2022-08-09T10:43:20.361Z,4.03
2022-08-09T10:44:48.102Z,7.70
2022-08-09T10:46:55.676Z,6.47
2022-08-09T10:48:47.635Z,3.40
2022-08-09T10:50:57.056Z,4.63
2022-08-09T10:52:36.584Z,7.67
2022-08-09T10:54:10.007Z,3.83
2022-08-09T10:55:55.044Z,2.10
2022-08-09T10:57:17.630Z,2.57
2022-08-09T10:58:42.941Z,2.60
2022-08-09T11:00:41.755Z,2.90
2022-08-09T11:03:13.787Z,5.43
2022-08-09T11:04:30.528Z,10.03
2022-08-09T11:06:15.625Z,8.50
2022-08-09T11:07:56.963Z,4.23
2022-08-09T11:09:48.038Z,4.47
2022-08-09T11:11:11.148Z,3.50
2022-08-09T11:12:33.328Z,4.43
2022-08-09T11:14:41.877Z,3.20
2022-08-09T11:16:35.080Z,3.27
2022-08-09T11:18:03.807Z,4.70
2022-08-09T11:20:10.126Z,6.53
2022-08-09T11:22:10.587Z,6.13
2022-08-09T11:23:58.919Z,3.40
2022-08-09T11:25:44.595Z,9.27
2022-08-09T11:28:09.171Z,6.80
2022-08-09T11:30:04.584Z,3.17
2022-08-09T11:31:49.426Z,5.97
2022-08-09T11:33:19.033Z,3.93
2022-08-09T11:34:48.986Z,4.40
2022-08-09T11:36:35.763Z,1.73
2022-08-09T11:38:13.389Z,3.07
2022-08-09T11:40:05.870Z,4.03
2022-08-09T11:41:38.250Z,3.63
2022-08-09T11:43:02.292Z,6.77
2022-08-09T11:44:45.329Z,4.60
2022-08-09T11:46:07.814Z,9.83
2022-08-09T11:47:46.064Z,4.83
2022-08-09T11:49:08.255Z,5.90
2022-08-09T11:53:00.982Z,3.53
2022-08-09T11:53:58.060Z,2.10
2022-08-09T11:54:43.510Z,3.83
2022-08-09T11:56:20.781Z,5.60
2022-08-09T11:58:32.667Z,9.23
2022-08-09T11:59:55.979Z,5.20
2022-08-09T12:02:01.345Z,5.13
2022-08-09T12:03:31.888Z,3.27
2022-08-09T12:04:45.276Z,6.40
2022-08-09T12:06:26.652Z,3.30
2022-08-09T12:07:54.591Z,6.20
2022-08-09T12:09:20.902Z,11.67
2022-08-09T12:10:48.454Z,4.00
2022-08-09T12:12:28.759Z,4.33
2022-08-09T12:14:07.333Z,5.80
2022-08-09T12:15:48.885Z,3.63
2022-08-09T12:17:34.519Z,6.23
2022-08-09T12:18:57.981Z,3.83
2022-08-09T12:20:23.118Z,5.17
2022-08-09T12:21:51.514Z,5.73
2022-08-09T12:23:14.046Z,4.73
2022-08-09T12:24:46.745Z,7.40
2022-08-09T12:26:19.755Z,2.40
2022-08-09T12:29:14.241Z,3.00
2022-08-09T12:29:44.600Z,2.27
2022-08-09T12:31:31.221Z,2.80
2022-08-09T12:33:12.453Z,5.20
2022-08-09T12:34:42.316Z,4.20
2022-08-09T12:36:05.933Z,3.47
2022-08-09T12:37:50.176Z,4.40
2022-08-09T12:39:14.690Z,2.50
2022-08-09T12:40:44.709Z,10.80
2022-08-09T12:42:10.215Z,2.17
2022-08-09T12:44:06.590Z,2.43
2022-08-09T12:45:34.178Z,8.60
2022-08-09T12:47:00.314Z,4.50
2022-08-09T12:48:31.255Z,4.63
2022-08-09T12:50:19.813Z,3.57
2022-08-09T12:52:02.511Z,3.93
2022-08-09T12:53:40.728Z,6.97
2022-08-09T12:56:16.204Z,3.07
2022-08-09T12:56:54.083Z,9.73
2022-08-09T12:58:27.212Z,3.23
2022-08-09T13:00:02.118Z,5.27
2022-08-09T13:01:28.401Z,5.67
2022-08-09T13:03:02.046Z,4.83
2022-08-09T13:04:36.022Z,4.10
2022-08-09T13:06:14.549Z,3.13
2022-08-09T13:07:50.763Z,8.90
2022-08-09T13:09:25.205Z,1.97
2022-08-09T13:10:52.512Z,7.53
2022-08-09T13:12:14.772Z,3.43
2022-08-09T13:14:42.138Z,5.07
2022-08-09T13:15:26.536Z,5.13
2022-08-09T13:16:52.806Z,7.80
2022-08-09T13:18:17.488Z,5.37
2022-08-09T13:20:10.636Z,5.97
2022-08-09T13:22:36.962Z,3.60
2022-08-09T13:24:07.123Z,5.40
2022-08-09T13:24:54.871Z,8.37
2022-08-09T13:26:36.882Z,6.23
2022-08-09T13:28:08.890Z,2.97
2022-08-09T13:30:02.634Z,7.00
2022-08-09T13:32:14.340Z,5.37
2022-08-09T13:32:57.041Z,12.77
2022-08-09T13:34:20.737Z,9.20
2022-08-09T13:36:39.553Z,4.33
2022-08-09T13:37:50.655Z,6.10
2022-08-09T13:41:18.989Z,4.90
2022-08-09T13:41:50.969Z,4.17
2022-08-09T13:42:45.237Z,7.77
2022-08-09T13:44:08.217Z,8.70
2022-08-09T13:46:07.387Z,4.20
2022-08-09T13:47:27.537Z,3.30
2022-08-09T13:48:55.520Z,5.80
2022-08-09T13:50:31.096Z,6.63
2022-08-09T13:52:00.633Z,6.03
2022-08-09T13:53:27.114Z,7.00
2022-08-09T13:55:07.511Z,4.40
2022-08-09T13:56:35.814Z,5.73
2022-08-09T13:58:01.993Z,4.80
2022-08-09T13:59:27.159Z,7.90
2022-08-09T14:01:04.327Z,5.03
2022-08-09T14:02:30.002Z,3.57
2022-08-09T14:04:01.852Z,9.83
2022-08-09T14:05:58.426Z,5.03
2022-08-09T14:07:08.730Z,3.40
2022-08-09T14:08:32.874Z,5.03
2022-08-09T14:09:55.051Z,3.73
2022-08-09T14:11:18.071Z,3.17
2022-08-09T14:12:40.611Z,3.33
2022-08-09T14:14:22.194Z,8.63
2022-08-09T14:16:10.491Z,3.67
2022-08-09T14:17:41.308Z,2.87
2022-08-09T14:19:09.638Z,4.43
2022-08-09T14:20:31.740Z,3.80
2022-08-09T14:21:54.571Z,7.33
2022-08-09T14:23:20.333Z,6.00
2022-08-09T14:24:58.957Z,6.30
2022-08-09T14:26:23.238Z,5.17
2022-08-09T14:27:56.945Z,6.33
2022-08-09T14:30:04.595Z,4.53
2022-08-09T14:31:04.016Z,6.33
2022-08-09T14:32:30.695Z,2.80
2022-08-09T14:33:54.579Z,5.70
2022-08-09T14:35:19.530Z,4.47
2022-08-09T14:36:45.487Z,11.10
2022-08-09T14:38:10.948Z,5.87
2022-08-09T14:39:40.407Z,2.67
2022-08-09T14:41:26.523Z,5.60
2022-08-09T14:42:52.903Z,4.20
2022-08-09T14:44:15.214Z,2.03
2022-08-09T14:46:57.015Z,6.50
2022-08-09T14:47:41.239Z,4.37
2022-08-09T14:49:02.459Z,6.17
2022-08-09T14:50:25.878Z,4.40
2022-08-09T14:51:49.204Z,12.63
2022-08-09T14:53:15.537Z,5.10
2022-08-09T14:54:39.809Z,6.90
2022-08-09T14:56:04.640Z,6.63
2022-08-09T14:57:32.116Z,6.53
2022-08-09T14:59:05.861Z,4.03
2022-08-09T15:00:37.659Z,3.80
2022-08-09T15:02:04.761Z,3.40
2022-08-09T15:03:27.850Z,4.60
2022-08-09T15:04:50.377Z,9.10
2022-08-09T15:06:13.508Z,5.30
2022-08-09T15:07:37.228Z,3.27
2022-08-09T15:08:59.351Z,2.77
2022-08-09T15:10:21.791Z,5.20
2022-08-09T15:11:49.624Z,11.37
2022-08-09T15:13:13.197Z,2.90
2022-08-09T15:14:38.472Z,4.67
2022-08-09T15:16:00.840Z,3.73
2022-08-09T15:17:23.263Z,2.47
2022-08-09T15:18:49.591Z,9.33
2022-08-09T15:20:15.458Z,3.97
2022-08-09T15:22:02.137Z,6.33
2022-08-09T15:23:55.932Z,4.00
2022-08-09T15:25:08.245Z,4.60
2022-08-09T15:26:31.699Z,4.93
2022-08-09T15:28:00.859Z,7.83
2022-08-09T15:30:58.149Z,3.70
2022-08-09T15:31:10.149Z,6.93
2022-08-09T15:32:37.094Z,2.27
2022-08-09T15:34:19.617Z,6.10
2022-08-09T15:35:44.785Z,2.03
2022-08-09T15:37:56.351Z,3.33
2022-08-09T15:39:22.807Z,3.80
2022-08-09T15:40:45.169Z,3.97
2022-08-09T15:42:08.427Z,4.27
2022-08-09T15:43:37.130Z,5.03
2022-08-09T15:45:03.299Z,5.70
2022-08-09T15:46:34.533Z,5.47
2022-08-09T15:48:05.283Z,3.80
2022-08-09T15:49:35.183Z,5.10
2022-08-09T15:51:00.877Z,4.73
2022-08-09T15:52:23.607Z,4.83
2022-08-09T15:54:04.321Z,1.63
2022-08-09T15:55:30.093Z,9.53
2022-08-09T15:56:57.595Z,5.90
2022-08-09T15:58:26.493Z,4.13
2022-08-09T15:59:51.938Z,2.70
2022-08-09T16:01:14.391Z,4.00
2022-08-09T16:02:36.647Z,2.97
2022-08-09T16:03:58.838Z,3.07
2022-08-09T16:05:22.589Z,6.03
2022-08-09T16:06:50.541Z,4.70
2022-08-09T16:08:29.670Z,5.03
2022-08-09T16:10:04.534Z,5.60
2022-08-09T16:11:28.743Z,5.93
2022-08-09T16:12:53.489Z,4.70
2022-08-09T16:14:16.377Z,3.53
2022-08-09T16:16:09.856Z,3.57
2022-08-09T16:17:29.136Z,5.60
2022-08-09T16:18:51.395Z,3.60
2022-08-09T16:20:15.484Z,2.63
2022-08-09T16:21:39.468Z,5.77
2022-08-09T16:23:02.716Z,3.43
2022-08-09T16:24:33.694Z,2.07
2022-08-09T16:26:01.065Z,2.23
2022-08-09T16:27:24.966Z,4.60
2022-08-09T16:28:52.063Z,8.00
2022-08-09T16:30:15.421Z,4.27
2022-08-09T16:32:12.615Z,2.47
2022-08-09T16:33:34.974Z,4.47
2022-08-09T16:35:00.987Z,4.03
2022-08-09T16:36:26.569Z,2.30
2022-08-09T16:37:55.541Z,6.50
2022-08-09T16:39:19.013Z,3.47
2022-08-09T16:40:43.727Z,3.57
2022-08-09T16:42:07.937Z,2.03
2022-08-09T16:43:30.203Z,3.63
2022-08-09T16:44:52.316Z,6.67
2022-08-09T16:46:18.399Z,3.17
2022-08-09T16:48:40.192Z,4.50
2022-08-09T16:50:31.253Z,2.67
2022-08-09T16:51:14.408Z,6.40
2022-08-09T16:52:37.205Z,2.83
2022-08-09T16:55:58.547Z,3.97
2022-08-09T16:57:23.771Z,6.07
2022-08-09T16:58:50.593Z,5.33
2022-08-09T17:00:14.752Z,3.23
2022-08-09T17:01:37.100Z,6.03
2022-08-09T17:03:00.937Z,3.47
2022-08-09T17:04:28.444Z,3.40
2022-08-09T17:06:03.479Z,4.10
2022-08-09T17:08:43.077Z,4.77
2022-08-09T17:09:45.243Z,5.60
2022-08-09T17:10:56.500Z,8.80
2022-08-09T17:12:19.649Z,5.13
2022-08-09T17:13:45.062Z,3.00
2022-08-09T17:15:30.821Z,4.37
2022-08-09T17:16:51.545Z,4.80
2022-08-09T17:18:13.642Z,6.17
2022-08-09T17:20:05.179Z,4.60
2022-08-09T17:21:19.617Z,4.83
2022-08-09T17:22:49.741Z,6.20
2022-08-09T17:24:27.071Z,3.00
2022-08-09T17:25:52.845Z,4.83
2022-08-09T17:27:15.681Z,9.60
2022-08-09T17:28:37.880Z,4.40
2022-08-09T17:30:06.711Z,3.20
2022-08-09T17:31:29.953Z,4.93
2022-08-09T17:33:05.535Z,3.63
2022-08-09T17:35:01.585Z,3.73
2022-08-09T17:36:26.552Z,5.03
2022-08-09T17:38:11.799Z,7.63
2022-08-09T17:39:53.356Z,5.07
2022-08-09T17:41:13.897Z,5.67
2022-08-09T17:42:42.107Z,3.47
2022-08-09T17:44:38.852Z,3.90
2022-08-09T17:46:03.092Z,6.30
2022-08-09T17:47:28.725Z,3.57
2022-08-09T17:48:52.904Z,2.57
2022-08-09T17:50:17.187Z,5.30
2022-08-09T17:51:47.603Z,6.73
2022-08-09T17:53:19.615Z,5.13
2022-08-09T17:54:44.711Z,9.10
2022-08-09T17:56:12.398Z,3.77
2022-08-09T17:58:02.927Z,4.00
2022-08-09T17:59:17.954Z,4.87
2022-08-09T18:00:44.190Z,3.83
2022-08-09T18:02:12.883Z,2.43
2022-08-09T18:03:43.645Z,3.40
2022-08-09T18:05:12.991Z,3.10
2022-08-09T18:06:35.611Z,2.53
2022-08-09T18:07:57.756Z,2.40
2022-08-09T18:09:20.884Z,5.40
2022-08-09T18:10:46.191Z,5.13
2022-08-09T18:12:40.271Z,4.70
2022-08-09T18:14:13.325Z,4.47
2022-08-09T18:16:05.238Z,9.83
2022-08-09T18:17:27.517Z,7.37
2022-08-09T18:20:56.208Z,7.20
2022-08-09T18:21:00.343Z,5.97
2022-08-09T18:22:25.983Z,4.73
2022-08-09T18:24:10.591Z,3.80
2022-08-09T18:25:52.958Z,4.50
2022-08-09T18:27:33.643Z,8.07
2022-08-09T18:30:39.328Z,5.23
2022-08-09T18:30:47.813Z,5.73
2022-08-09T18:32:11.978Z,5.20
2022-08-09T18:33:36.034Z,4.43
2022-08-09T18:34:58.105Z,7.90
2022-08-09T18:36:25.898Z,7.57
2022-08-09T18:37:55.057Z,6.17
2022-08-09T18:39:17.360Z,3.50
2022-08-09T18:40:40.721Z,11.13
2022-08-09T18:42:08.959Z,4.27
2022-08-09T18:43:35.259Z,7.00
2022-08-09T18:45:01.128Z,6.40
2022-08-09T18:46:50.843Z,20.60
2022-08-09T18:48:06.651Z,4.50
2022-08-09T18:49:32.323Z,3.73
2022-08-09T18:51:06.268Z,7.07
2022-08-09T18:52:34.742Z,9.27
2022-08-09T18:54:02.755Z,6.10
2022-08-09T18:55:55.936Z,8.63
2022-08-09T18:57:13.409Z,3.70
2022-08-09T18:58:36.834Z,8.23
2022-08-09T19:00:03.922Z,3.90
2022-08-09T19:01:26.855Z,5.70
2022-08-09T19:02:51.006Z,6.23
2022-08-09T19:04:13.575Z,12.80
2022-08-09T19:06:02.625Z,5.80
2022-08-09T19:07:17.749Z,7.83
2022-08-09T19:08:39.882Z,6.43
2022-08-09T19:10:17.997Z,7.60
2022-08-09T19:11:40.819Z,9.53
2022-08-09T19:13:23.107Z,10.30
2022-08-09T19:14:51.479Z,5.50
2022-08-09T19:16:20.963Z,10.30
2022-08-09T19:17:52.515Z,8.97
2022-08-09T19:19:23.593Z,7.23
2022-08-09T19:20:52.240Z,6.80
2022-08-09T19:22:19.105Z,7.87
2022-08-09T19:24:32.568Z,6.03
2022-08-09T19:25:42.758Z,7.10
2022-08-09T19:27:07.732Z,6.90
2022-08-09T19:28:30.443Z,4.37
2022-08-09T19:30:25.095Z,7.73
2022-08-09T19:31:45.242Z,12.50
2022-08-09T19:33:14.389Z,4.73
2022-08-09T19:34:45.530Z,8.97
2022-08-09T19:36:11.799Z,7.10
2022-08-09T19:37:54.398Z,8.40
2022-08-09T19:39:17.017Z,4.90
2022-08-09T19:40:42.820Z,7.33
2022-08-09T19:42:06.347Z,9.40
2022-08-09T19:43:58.290Z,7.27
2022-08-09T19:45:11.818Z,6.47
2022-08-09T19:46:50.140Z,5.70
2022-08-09T19:48:13.204Z,8.27
2022-08-09T19:50:09.025Z,5.87
2022-08-09T19:51:17.771Z,6.80
2022-08-09T19:52:49.586Z,5.10
2022-08-09T19:54:14.554Z,9.37
2022-08-09T19:56:02.147Z,9.67
2022-08-09T19:57:18.855Z,5.47
2022-08-09T19:59:18.055Z,5.33
2022-08-09T20:00:30.250Z,4.70
2022-08-09T20:02:05.248Z,5.67
2022-08-09T20:04:18.714Z,7.03
2022-08-09T20:05:17.382Z,9.67
2022-08-09T20:06:39.951Z,8.13